createdAt,value
2022-08-20T00:02:59.277Z,23.76
2022-08-20T00:08:04.283Z,23.36
2022-08-20T00:13:14.017Z,23.03
2022-08-20T00:18:23.187Z,22.81
2022-08-20T00:23:26.270Z,22.70
2022-08-20T00:28:29.223Z,22.59
2022-08-20T00:33:32.620Z,22.51
2022-08-20T00:38:42.046Z,22.44
2022-08-20T00:44:09.859Z,22.25
2022-08-20T00:49:25.031Z,22.03
2022-08-20T00:55:00.515Z,21.86
2022-08-20T01:00:14.038Z,21.74
2022-08-20T01:05:18.696Z,21.65
2022-08-20T01:10:38.113Z,21.65
2022-08-20T01:15:45.799Z,21.60
2022-08-20T01:21:04.380Z,21.57
2022-08-20T01:26:27.576Z,21.50
2022-08-20T01:31:35.730Z,21.42
2022-08-20T01:36:46.415Z,21.35
2022-08-20T01:42:58.675Z,21.28
2022-08-20T01:48:04.105Z,21.31
2022-08-20T01:53:35.412Z,21.36
2022-08-20T01:58:43.793Z,21.38
2022-08-20T02:03:46.871Z,21.39
2022-08-20T02:08:51.467Z,21.37
2022-08-20T02:13:56.619Z,21.35
2022-08-20T02:19:09.933Z,21.31
2022-08-20T02:24:14.169Z,21.29
2022-08-20T02:29:18.089Z,21.27
2022-08-20T02:34:22.808Z,21.26
2022-08-20T02:39:26.887Z,21.22
2022-08-20T02:44:32.346Z,21.17
2022-08-20T02:49:35.625Z,21.11
2022-08-20T02:54:38.567Z,21.07
2022-08-20T02:59:41.764Z,21.02
2022-08-20T03:04:45.141Z,20.98
2022-08-20T03:09:48.064Z,20.98
2022-08-20T03:14:51.108Z,21.01
2022-08-20T03:19:54.107Z,21.01
2022-08-20T03:24:57.298Z,21.02
2022-08-20T03:30:00.333Z,21.05
2022-08-20T03:35:07.197Z,21.06
2022-08-20T03:40:17.311Z,21.04
2022-08-20T03:45:23.141Z,21.00
2022-08-20T03:50:31.073Z,20.99
2022-08-20T03:55:34.437Z,20.98
2022-08-20T04:00:50.486Z,20.92
2022-08-20T04:05:54.753Z,20.89
2022-08-20T04:10:59.862Z,20.90
2022-08-20T04:16:13.358Z,20.91
2022-08-20T04:21:17.729Z,20.92
2022-08-20T04:26:21.808Z,20.97
2022-08-20T04:31:25.405Z,20.96
2022-08-20T04:36:28.662Z,20.92
2022-08-20T04:41:31.687Z,20.89
2022-08-20T04:46:34.660Z,20.88
2022-08-20T04:51:37.645Z,20.89
2022-08-20T04:56:40.647Z,20.89
2022-08-20T05:01:43.551Z,20.92
2022-08-20T05:06:46.738Z,20.97
2022-08-20T05:11:49.665Z,21.01
2022-08-20T05:16:57.574Z,21.12
2022-08-20T05:22:01.718Z,21.15
2022-08-20T05:27:04.906Z,21.10
2022-08-20T05:32:07.864Z,21.08
2022-08-20T05:37:10.859Z,21.12
2022-08-20T05:42:14.892Z,21.35
2022-08-20T05:47:18.555Z,21.62
2022-08-20T05:52:21.928Z,21.76
2022-08-20T05:57:24.986Z,21.84
2022-08-20T06:02:46.839Z,21.91
2022-08-20T06:07:50.890Z,22.01
2022-08-20T06:12:58.293Z,22.19
2022-08-20T06:18:03.670Z,22.36
2022-08-20T06:23:15.896Z,22.52
2022-08-20T06:28:19.208Z,22.60
2022-08-20T06:33:22.294Z,22.74
2022-08-20T06:38:25.539Z,22.86
2022-08-20T06:43:28.733Z,23.04
2022-08-20T06:48:31.706Z,23.45
2022-08-20T06:53:34.637Z,23.71
2022-08-20T06:58:38.888Z,23.89
2022-08-20T07:03:55.061Z,24.19
2022-08-20T07:08:59.246Z,24.73
2022-08-20T07:14:05.599Z,25.02
2022-08-20T07:19:09.016Z,25.19
2022-08-20T07:24:12.668Z,25.18
2022-08-20T07:29:15.695Z,25.12
2022-08-20T07:34:19.561Z,25.11
2022-08-20T07:39:22.840Z,25.09
2022-08-20T07:44:31.092Z,25.12
2022-08-20T07:49:38.873Z,25.38
2022-08-20T07:54:43.491Z,25.85
2022-08-20T07:59:46.573Z,26.16
2022-08-20T08:04:49.527Z,26.16
2022-08-20T08:09:54.766Z,26.03
2022-08-20T08:14:57.750Z,25.80
2022-08-20T08:20:01.601Z,25.82
2022-08-20T08:25:05.830Z,25.78
2022-08-20T08:30:10.839Z,25.79
2022-08-20T08:35:14.503Z,25.94
2022-08-20T08:40:18.349Z,26.15
2022-08-20T08:45:22.157Z,26.49
2022-08-20T08:50:52.992Z,26.89
2022-08-20T08:55:55.815Z,27.35
2022-08-20T09:01:02.117Z,27.82
2022-08-20T09:06:23.414Z,28.11
2022-08-20T09:11:27.248Z,28.25
2022-08-20T09:16:45.674Z,28.22
2022-08-20T09:21:53.469Z,28.29
2022-08-20T09:26:56.452Z,28.66
2022-08-20T09:32:10.143Z,28.89
2022-08-20T09:37:14.551Z,28.98
2022-08-20T09:42:25.820Z,29.10
2022-08-20T09:47:29.023Z,29.03
2022-08-20T09:52:40.667Z,29.04
2022-08-20T09:57:44.085Z,28.75
2022-08-20T10:02:47.983Z,28.48
2022-08-20T10:07:51.073Z,28.24
2022-08-20T10:12:54.997Z,28.16
2022-08-20T10:17:58.589Z,28.20
2022-08-20T10:23:04.011Z,28.08
2022-08-20T10:28:07.201Z,28.13
2022-08-20T10:33:10.191Z,28.10
2022-08-20T10:38:13.218Z,27.81
2022-08-20T10:43:16.200Z,27.82
2022-08-20T10:48:24.135Z,27.92
2022-08-20T10:53:27.229Z,27.96
2022-08-20T10:58:37.719Z,28.01
2022-08-20T11:03:42.795Z,28.17
2022-08-20T11:08:45.809Z,28.45
2022-08-20T11:13:49.262Z,28.74
2022-08-20T11:18:52.179Z,29.08
2022-08-20T11:23:55.191Z,29.41
2022-08-20T11:29:00.410Z,29.80
2022-08-20T11:34:03.424Z,30.34
2022-08-20T11:39:09.534Z,31.01
2022-08-20T11:44:20.088Z,31.13
2022-08-20T11:49:26.502Z,30.84
2022-08-20T11:54:29.553Z,30.51
2022-08-20T11:59:32.738Z,30.61
2022-08-20T12:04:35.639Z,30.76
2022-08-20T12:09:47.335Z,30.70
2022-08-20T12:14:55.904Z,30.16
2022-08-20T12:20:06.202Z,29.68
2022-08-20T12:25:09.704Z,29.34
2022-08-20T12:30:20.035Z,29.12
2022-08-20T12:35:23.600Z,29.23
2022-08-20T12:40:31.865Z,29.45
2022-08-20T12:45:37.730Z,29.72
2022-08-20T12:50:46.345Z,29.65
2022-08-20T12:55:49.393Z,29.45
2022-08-20T13:00:52.721Z,29.41
2022-08-20T13:05:55.735Z,29.30
2022-08-20T13:10:58.901Z,29.43
2022-08-20T13:16:01.918Z,29.51
2022-08-20T13:21:05.013Z,29.42
2022-08-20T13:26:08.266Z,29.71
2022-08-20T13:31:11.501Z,30.22
2022-08-20T13:36:15.239Z,30.69
2022-08-20T13:41:18.333Z,30.71
2022-08-20T13:46:21.428Z,30.52
2022-08-20T13:51:24.738Z,30.50
2022-08-20T13:56:30.654Z,30.42
2022-08-20T14:01:34.093Z,29.99
2022-08-20T14:06:37.130Z,29.87
2022-08-20T14:11:40.129Z,29.70
2022-08-20T14:16:43.092Z,29.35
2022-08-20T14:21:46.126Z,29.08
2022-08-20T14:26:49.126Z,28.71
2022-08-20T14:31:52.192Z,28.06
2022-08-20T14:36:55.999Z,27.18
2022-08-20T14:41:59.269Z,26.72
2022-08-20T14:47:16.913Z,26.56
2022-08-20T14:52:24.405Z,26.31
2022-08-20T14:57:32.865Z,26.09
2022-08-20T15:02:37.145Z,26.04
2022-08-20T15:07:45.469Z,25.84
2022-08-20T15:12:50.937Z,25.65
2022-08-20T15:17:58.405Z,25.46
2022-08-20T15:23:02.564Z,25.47
2022-08-20T15:28:09.591Z,25.44
2022-08-20T15:33:12.606Z,25.47
2022-08-20T15:38:15.676Z,25.51
2022-08-20T15:43:18.616Z,25.53
2022-08-20T15:48:32.598Z,25.46
2022-08-20T15:54:01.429Z,25.51
2022-08-20T15:59:26.322Z,25.35
2022-08-20T16:04:48.080Z,25.02
2022-08-20T16:10:17.236Z,24.90
2022-08-20T16:15:30.588Z,24.72
2022-08-20T16:20:41.972Z,24.29
2022-08-20T16:26:15.808Z,23.74
2022-08-20T16:31:25.718Z,23.34
2022-08-20T16:36:48.577Z,23.12
2022-08-20T16:42:10.559Z,22.99
2022-08-20T16:47:38.561Z,22.95
2022-08-20T16:52:45.646Z,22.90
2022-08-20T16:57:49.613Z,22.89
2022-08-20T17:02:55.501Z,22.91
2022-08-20T17:08:04.128Z,22.90
2022-08-20T17:13:16.185Z,22.85
2022-08-20T17:18:26.412Z,22.73
2022-08-20T17:23:49.124Z,22.65
2022-08-20T17:29:03.762Z,22.60
2022-08-20T17:34:41.392Z,22.56
2022-08-20T17:39:54.381Z,22.52
2022-08-20T17:45:21.753Z,22.46
2022-08-20T17:50:35.459Z,22.40
2022-08-20T17:55:40.935Z,22.37
2022-08-20T18:00:44.970Z,22.34
2022-08-20T18:06:10.796Z,22.33
2022-08-20T18:11:25.869Z,22.37
2022-08-20T18:16:48.706Z,22.45
2022-08-20T18:22:14.078Z,22.34
2022-08-20T18:27:22.164Z,22.23
2022-08-20T18:32:35.229Z,22.18
2022-08-20T18:37:39.269Z,22.15
2022-08-20T18:42:42.777Z,22.13
2022-08-20T18:47:46.998Z,22.14
2022-08-20T18:53:08.321Z,22.12
2022-08-20T18:58:30.043Z,22.03
2022-08-20T19:03:36.051Z,21.93
2022-08-20T19:08:53.108Z,21.91
2022-08-20T19:14:46.670Z,21.97
2022-08-20T19:20:06.491Z,22.13
2022-08-20T19:25:21.942Z,22.07
2022-08-20T19:30:41.568Z,21.87
2022-08-20T19:35:45.220Z,21.74
2022-08-20T19:40:48.191Z,21.57
2022-08-20T19:45:57.093Z,21.47
2022-08-20T19:51:14.442Z,21.38
2022-08-20T19:56:26.136Z,21.23
2022-08-20T20:01:29.382Z,21.05
2022-08-20T20:06:41.705Z,21.09
2022-08-20T20:11:58.566Z,21.10
2022-08-20T20:17:05.811Z,21.07
2022-08-20T20:22:19.644Z,21.09
2022-08-20T20:27:27.492Z,21.11
2022-08-20T20:32:33.944Z,21.09
2022-08-20T20:37:49.333Z,20.97
2022-08-20T20:43:08.259Z,20.89
2022-08-20T20:48:23.960Z,20.49
2022-08-20T20:53:53.262Z,19.74
2022-08-20T20:59:00.287Z,19.48
2022-08-20T21:04:06.801Z,19.18
2022-08-20T21:09:09.857Z,18.84
2022-08-20T21:14:12.884Z,18.78
2022-08-20T21:19:16.465Z,18.87
2022-08-20T21:24:19.554Z,18.94
2022-08-20T21:29:32.549Z,18.88
2022-08-20T21:34:35.923Z,18.85
2022-08-20T21:39:40.356Z,18.83
2022-08-20T21:44:49.429Z,18.84
2022-08-20T21:49:52.604Z,18.89
2022-08-20T21:54:55.516Z,19.01
2022-08-20T21:59:59.008Z,19.12
2022-08-20T22:05:05.314Z,19.13
2022-08-20T22:10:10.128Z,19.10
2022-08-20T22:15:13.082Z,19.16
2022-08-20T22:20:16.368Z,19.34
2022-08-20T22:25:19.517Z,19.50
2022-08-20T22:30:23.002Z,19.59
2022-08-20T22:35:26.097Z,19.62
2022-08-20T22:40:29.119Z,19.71
2022-08-20T22:45:32.872Z,19.85
2022-08-20T22:50:38.149Z,20.03
2022-08-20T22:55:41.158Z,20.10
2022-08-20T23:00:47.778Z,20.09
2022-08-20T23:05:50.784Z,20.08
2022-08-20T23:10:53.794Z,20.13
2022-08-20T23:15:57.099Z,20.18
2022-08-20T23:21:00.697Z,20.25
2022-08-20T23:26:03.755Z,20.31
2022-08-20T23:31:06.780Z,20.35
2022-08-20T23:36:11.657Z,20.37
2022-08-20T23:41:14.700Z,20.42
2022-08-20T23:46:20.369Z,20.39
2022-08-20T23:51:24.388Z,20.32
2022-08-20T23:56:27.775Z,20.31
